sensor_id;sensor_type;location;lat;lon;timestamp;P1;durP1;ratioP1;P2;durP2;ratioP2
20772;SDS011;10546;50.674;4.616;2023-03-29T04:11:15;6.20;;;3.10;;
20772;SDS011;10546;50.674;4.616;2023-03-29T04:13:41;9.63;;;3.47;;
20772;SDS011;10546;50.674;4.616;2023-03-29T04:16:06;6.27;;;2.90;;
20772;SDS011;10546;50.674;4.616;2023-03-29T04:18:32;9.57;;;3.30;;
20772;SDS011;10546;50.674;4.616;2023-03-29T04:20:58;7.07;;;3.20;;
20772;SDS011;10546;50.674;4.616;2023-03-29T04:23:23;9.20;;;4.23;;
20772;SDS011;10546;50.674;4.616;2023-03-29T04:25:52;14.80;;;5.60;;
20772;SDS011;10546;50.674;4.616;2023-03-29T04:28:20;15.73;;;6.20;;
20772;SDS011;10546;50.674;4.616;2023-03-29T04:30:45;7.90;;;3.60;;
20772;SDS011;10546;50.674;4.616;2023-03-29T04:33:12;8.40;;;3.60;;
20772;SDS011;10546;50.674;4.616;2023-03-29T04:35:38;9.07;;;3.27;;
20772;SDS011;10546;50.674;4.616;2023-03-29T04:38:04;5.00;;;2.97;;
20772;SDS011;10546;50.674;4.616;2023-03-29T04:40:33;5.70;;;3.27;;
20772;SDS011;10546;50.674;4.616;2023-03-29T04:43:00;8.03;;;3.43;;
20772;SDS011;10546;50.674;4.616;2023-03-29T04:45:26;9.47;;;3.43;;
20772;SDS011;10546;50.674;4.616;2023-03-29T04:47:56;6.60;;;3.73;;
20772;SDS011;10546;50.674;4.616;2023-03-29T04:50:25;6.50;;;3.27;;
20772;SDS011;10546;50.674;4.616;2023-03-29T04:52:51;4.77;;;3.20;;
20772;SDS011;10546;50.674;4.616;2023-03-29T04:55:17;12.30;;;5.00;;
20772;SDS011;10546;50.674;4.616;2023-03-29T04:57:43;9.13;;;3.97;;
20772;SDS011;10546;50.674;4.616;2023-03-29T05:00:09;5.27;;;3.13;;
20772;SDS011;10546;50.674;4.616;2023-03-29T05:02:42;10.53;;;4.73;;
20772;SDS011;10546;50.674;4.616;2023-03-29T05:05:09;7.47;;;3.73;;
20772;SDS011;10546;50.674;4.616;2023-03-29T05:07:35;8.20;;;3.90;;
20772;SDS011;10546;50.674;4.616;2023-03-29T05:10:02;8.43;;;3.77;;
20772;SDS011;10546;50.674;4.616;2023-03-29T05:12:29;7.00;;;3.83;;
20772;SDS011;10546;50.674;4.616;2023-03-29T05:14:54;7.83;;;3.63;;
20772;SDS011;10546;50.674;4.616;2023-03-29T05:17:20;9.07;;;3.27;;
20772;SDS011;10546;50.674;4.616;2023-03-29T05:19:46;11.33;;;3.70;;
20772;SDS011;10546;50.674;4.616;2023-03-29T05:22:12;10.30;;;3.30;;
20772;SDS011;10546;50.674;4.616;2023-03-29T05:24:38;8.37;;;3.50;;
20772;SDS011;10546;50.674;4.616;2023-03-29T05:27:04;10.40;;;3.70;;
20772;SDS011;10546;50.674;4.616;2023-03-29T05:29:29;6.40;;;3.50;;
20772;SDS011;10546;50.674;4.616;2023-03-29T05:32:01;13.30;;;3.97;;
20772;SDS011;10546;50.674;4.616;2023-03-29T05:34:27;7.00;;;3.57;;
20772;SDS011;10546;50.674;4.616;2023-03-29T05:36:53;12.27;;;3.50;;
20772;SDS011;10546;50.674;4.616;2023-03-29T05:39:20;4.83;;;3.27;;
20772;SDS011;10546;50.674;4.616;2023-03-29T05:41:47;9.90;;;3.40;;
20772;SDS011;10546;50.674;4.616;2023-03-29T05:44:12;8.63;;;3.33;;
20772;SDS011;10546;50.674;4.616;2023-03-29T05:46:38;6.40;;;3.60;;
20772;SDS011;10546;50.674;4.616;2023-03-29T05:49:04;7.37;;;2.83;;
20772;SDS011;10546;50.674;4.616;2023-03-29T05:51:30;6.97;;;3.30;;
20772;SDS011;10546;50.674;4.616;2023-03-29T05:53:57;6.93;;;3.40;;
20772;SDS011;10546;50.674;4.616;2023-03-29T05:56:23;8.97;;;3.83;;
20772;SDS011;10546;50.674;4.616;2023-03-29T05:58:49;12.07;;;4.10;;
20772;SDS011;10546;50.674;4.616;2023-03-29T06:01:17;7.93;;;4.00;;
20772;SDS011;10546;50.674;4.616;2023-03-29T06:03:42;8.60;;;3.93;;
20772;SDS011;10546;50.674;4.616;2023-03-29T06:06:09;11.43;;;3.73;;
20772;SDS011;10546;50.674;4.616;2023-03-29T06:08:35;11.70;;;4.23;;
20772;SDS011;10546;50.674;4.616;2023-03-29T06:11:02;8.80;;;4.53;;
20772;SDS011;10546;50.674;4.616;2023-03-29T06:13:31;10.80;;;4.50;;
20772;SDS011;10546;50.674;4.616;2023-03-29T06:15:58;7.27;;;4.17;;
20772;SDS011;10546;50.674;4.616;2023-03-29T06:18:24;8.77;;;4.07;;
20772;SDS011;10546;50.674;4.616;2023-03-29T06:20:51;9.70;;;4.10;;
20772;SDS011;10546;50.674;4.616;2023-03-29T06:23:20;6.70;;;4.03;;
20772;SDS011;10546;50.674;4.616;2023-03-29T06:25:47;11.60;;;4.13;;
20772;SDS011;10546;50.674;4.616;2023-03-29T06:28:15;9.03;;;3.83;;
20772;SDS011;10546;50.674;4.616;2023-03-29T06:30:42;9.90;;;3.97;;
20772;SDS011;10546;50.674;4.616;2023-03-29T06:33:08;6.47;;;3.57;;
20772;SDS011;10546;50.674;4.616;2023-03-29T06:35:34;6.40;;;4.10;;
20772;SDS011;10546;50.674;4.616;2023-03-29T06:38:01;10.23;;;4.50;;
20772;SDS011;10546;50.674;4.616;2023-03-29T06:40:27;10.63;;;4.37;;
20772;SDS011;10546;50.674;4.616;2023-03-29T06:42:54;7.37;;;3.83;;
20772;SDS011;10546;50.674;4.616;2023-03-29T06:45:25;10.00;;;4.33;;
20772;SDS011;10546;50.674;4.616;2023-03-29T06:47:52;7.03;;;3.60;;
20772;SDS011;10546;50.674;4.616;2023-03-29T06:50:18;8.77;;;4.03;;
20772;SDS011;10546;50.674;4.616;2023-03-29T06:52:46;8.60;;;4.37;;
20772;SDS011;10546;50.674;4.616;2023-03-29T06:55:11;8.63;;;4.47;;
20772;SDS011;10546;50.674;4.616;2023-03-29T06:57:37;11.87;;;4.77;;
20772;SDS011;10546;50.674;4.616;2023-03-29T07:00:04;9.13;;;4.57;;
20772;SDS011;10546;50.674;4.616;2023-03-29T07:02:41;13.37;;;4.47;;
20772;SDS011;10546;50.674;4.616;2023-03-29T07:05:07;9.53;;;4.43;;
20772;SDS011;10546;50.674;4.616;2023-03-29T07:07:36;9.73;;;4.50;;
20772;SDS011;10546;50.674;4.616;2023-03-29T07:10:27;25.80;;;10.23;;
20772;SDS011;10546;50.674;4.616;2023-03-29T07:12:58;10.60;;;4.73;;
20772;SDS011;10546;50.674;4.616;2023-03-29T07:15:25;11.37;;;4.43;;
20772;SDS011;10546;50.674;4.616;2023-03-29T07:17:52;15.63;;;5.03;;
20772;SDS011;10546;50.674;4.616;2023-03-29T07:20:18;10.57;;;4.63;;
20772;SDS011;10546;50.674;4.616;2023-03-29T07:22:47;12.43;;;5.00;;
20772;SDS011;10546;50.674;4.616;2023-03-29T07:25:15;14.77;;;5.37;;
20772;SDS011;10546;50.674;4.616;2023-03-29T07:27:42;11.13;;;5.10;;
20772;SDS011;10546;50.674;4.616;2023-03-29T07:30:10;11.07;;;4.93;;
20772;SDS011;10546;50.674;4.616;2023-03-29T07:32:40;9.20;;;4.40;;
20772;SDS011;10546;50.674;4.616;2023-03-29T07:35:09;12.57;;;4.10;;
20772;SDS011;10546;50.674;4.616;2023-03-29T07:37:37;8.33;;;4.43;;
20772;SDS011;10546;50.674;4.616;2023-03-29T07:40:04;12.60;;;4.50;;
20772;SDS011;10546;50.674;4.616;2023-03-29T07:42:43;8.47;;;4.00;;
20772;SDS011;10546;50.674;4.616;2023-03-29T07:45:11;12.87;;;5.03;;
20772;SDS011;10546;50.674;4.616;2023-03-29T07:47:40;7.10;;;3.90;;
20772;SDS011;10546;50.674;4.616;2023-03-29T07:50:07;7.77;;;3.97;;
20772;SDS011;10546;50.674;4.616;2023-03-29T07:52:34;10.63;;;4.10;;
20772;SDS011;10546;50.674;4.616;2023-03-29T07:55:00;10.30;;;4.37;;
20772;SDS011;10546;50.674;4.616;2023-03-29T07:57:26;9.37;;;4.00;;
20772;SDS011;10546;50.674;4.616;2023-03-29T07:59:52;8.80;;;4.47;;
20772;SDS011;10546;50.674;4.616;2023-03-29T08:02:18;9.50;;;4.27;;
20772;SDS011;10546;50.674;4.616;2023-03-29T08:04:45;9.27;;;4.70;;
20772;SDS011;10546;50.674;4.616;2023-03-29T08:07:11;11.27;;;3.97;;
20772;SDS011;10546;50.674;4.616;2023-03-29T08:09:37;10.53;;;4.00;;
20772;SDS011;10546;50.674;4.616;2023-03-29T08:12:03;9.63;;;4.13;;
20772;SDS011;10546;50.674;4.616;2023-03-29T08:14:29;8.07;;;3.70;;
20772;SDS011;10546;50.674;4.616;2023-03-29T08:16:55;11.00;;;5.40;;
20772;SDS011;10546;50.674;4.616;2023-03-29T08:19:21;11.43;;;4.47;;
20772;SDS011;10546;50.674;4.616;2023-03-29T08:21:46;10.17;;;5.00;;
20772;SDS011;10546;50.674;4.616;2023-03-29T08:24:12;14.20;;;5.57;;
20772;SDS011;10546;50.674;4.616;2023-03-29T08:26:38;11.80;;;5.00;;
20772;SDS011;10546;50.674;4.616;2023-03-29T08:29:04;7.77;;;4.37;;
20772;SDS011;10546;50.674;4.616;2023-03-29T08:31:34;15.07;;;4.50;;
20772;SDS011;10546;50.674;4.616;2023-03-29T08:34:03;13.43;;;4.53;;
20772;SDS011;10546;50.674;4.616;2023-03-29T08:36:28;12.77;;;5.25;;
20772;SDS011;10546;50.674;4.616;2023-03-29T08:38:55;7.38;;;3.80;;
20772;SDS011;10546;50.674;4.616;2023-03-29T08:49:59;8.63;;;3.30;;
20772;SDS011;10546;50.674;4.616;2023-03-29T08:52:39;7.22;;;3.60;;
20772;SDS011;10546;50.674;4.616;2023-03-29T08:55:19;7.93;;;3.55;;
20772;SDS011;10546;50.674;4.616;2023-03-29T08:58:04;4.53;;;2.95;;
20772;SDS011;10546;50.674;4.616;2023-03-29T09:03:07;7.53;;;3.65;;
20772;SDS011;10546;50.674;4.616;2023-03-29T09:05:40;6.80;;;3.58;;
20772;SDS011;10546;50.674;4.616;2023-03-29T09:08:21;12.52;;;3.78;;
20772;SDS011;10546;50.674;4.616;2023-03-29T09:13:33;7.93;;;3.70;;
20772;SDS011;10546;50.674;4.616;2023-03-29T09:16:20;6.63;;;3.77;;
20772;SDS011;10546;50.674;4.616;2023-03-29T09:24:13;7.88;;;3.72;;
20772;SDS011;10546;50.674;4.616;2023-03-29T09:26:49;11.15;;;3.70;;
20772;SDS011;10546;50.674;4.616;2023-03-29T09:32:19;9.88;;;3.58;;
20772;SDS011;10546;50.674;4.616;2023-03-29T09:35:07;6.82;;;3.90;;
20772;SDS011;10546;50.674;4.616;2023-03-29T09:37:44;9.93;;;3.75;;
20772;SDS011;10546;50.674;4.616;2023-03-29T09:40:16;8.20;;;4.35;;
20772;SDS011;10546;50.674;4.616;2023-03-29T09:42:46;14.73;;;4.13;;
20772;SDS011;10546;50.674;4.616;2023-03-29T09:45:15;9.88;;;4.00;;
20772;SDS011;10546;50.674;4.616;2023-03-29T09:50:20;9.43;;;4.03;;
20772;SDS011;10546;50.674;4.616;2023-03-29T09:52:50;7.70;;;3.35;;
20772;SDS011;10546;50.674;4.616;2023-03-29T09:55:16;8.88;;;3.35;;
20772;SDS011;10546;50.674;4.616;2023-03-29T09:57:45;9.15;;;3.65;;
20772;SDS011;10546;50.674;4.616;2023-03-29T10:00:11;6.53;;;3.42;;
20772;SDS011;10546;50.674;4.616;2023-03-29T10:02:37;7.13;;;3.40;;
20772;SDS011;10546;50.674;4.616;2023-03-29T10:05:04;6.35;;;3.22;;
20772;SDS011;10546;50.674;4.616;2023-03-29T10:07:38;5.07;;;2.90;;
20772;SDS011;10546;50.674;4.616;2023-03-29T10:10:09;7.32;;;2.88;;
20772;SDS011;10546;50.674;4.616;2023-03-29T10:12:45;6.53;;;2.85;;
20772;SDS011;10546;50.674;4.616;2023-03-29T10:15:14;5.90;;;2.58;;
20772;SDS011;10546;50.674;4.616;2023-03-29T10:17:41;6.50;;;2.95;;
20772;SDS011;10546;50.674;4.616;2023-03-29T10:20:17;7.28;;;3.00;;
20772;SDS011;10546;50.674;4.616;2023-03-29T10:22:47;10.93;;;3.25;;
20772;SDS011;10546;50.674;4.616;2023-03-29T10:25:19;6.57;;;2.58;;
20772;SDS011;10546;50.674;4.616;2023-03-29T10:28:09;7.43;;;3.10;;
20772;SDS011;10546;50.674;4.616;2023-03-29T10:30:40;7.78;;;2.97;;
20772;SDS011;10546;50.674;4.616;2023-03-29T10:33:12;5.13;;;2.97;;
20772;SDS011;10546;50.674;4.616;2023-03-29T10:35:41;5.40;;;2.75;;
20772;SDS011;10546;50.674;4.616;2023-03-29T10:38:14;6.25;;;2.80;;
20772;SDS011;10546;50.674;4.616;2023-03-29T10:40:46;5.03;;;1.85;;
20772;SDS011;10546;50.674;4.616;2023-03-29T10:43:23;5.47;;;2.13;;
20772;SDS011;10546;50.674;4.616;2023-03-29T10:45:54;6.55;;;2.75;;
20772;SDS011;10546;50.674;4.616;2023-03-29T10:48:33;4.05;;;2.35;;
20772;SDS011;10546;50.674;4.616;2023-03-29T10:51:00;3.65;;;1.70;;
20772;SDS011;10546;50.674;4.616;2023-03-29T10:53:28;3.65;;;2.20;;
20772;SDS011;10546;50.674;4.616;2023-03-29T10:59:13;6.65;;;2.92;;
20772;SDS011;10546;50.674;4.616;2023-03-29T11:01:15;4.95;;;2.30;;
20772;SDS011;10546;50.674;4.616;2023-03-29T11:09:11;7.70;;;2.60;;
20772;SDS011;10546;50.674;4.616;2023-03-29T11:12:00;4.05;;;2.53;;
20772;SDS011;10546;50.674;4.616;2023-03-29T11:15:39;5.28;;;2.53;;
20772;SDS011;10546;50.674;4.616;2023-03-29T11:31:09;6.20;;;2.40;;
20772;SDS011;10546;50.674;4.616;2023-03-29T11:33:54;5.18;;;3.05;;
20772;SDS011;10546;50.674;4.616;2023-03-29T11:39:18;8.13;;;2.80;;
20772;SDS011;10546;50.674;4.616;2023-03-29T11:42:01;7.75;;;3.20;;
20772;SDS011;10546;50.674;4.616;2023-03-29T11:44:42;5.95;;;2.90;;
20772;SDS011;10546;50.674;4.616;2023-03-29T11:47:14;6.78;;;2.92;;
20772;SDS011;10546;50.674;4.616;2023-03-29T11:49:45;4.97;;;2.55;;
20772;SDS011;10546;50.674;4.616;2023-03-29T11:52:24;7.30;;;2.60;;
20772;SDS011;10546;50.674;4.616;2023-03-29T11:54:58;4.18;;;2.30;;
20772;SDS011;10546;50.674;4.616;2023-03-29T11:57:37;4.40;;;2.53;;
20772;SDS011;10546;50.674;4.616;2023-03-29T12:05:22;5.22;;;2.90;;
20772;SDS011;10546;50.674;4.616;2023-03-29T12:08:02;9.32;;;3.95;;
20772;SDS011;10546;50.674;4.616;2023-03-29T12:10:40;5.38;;;3.00;;
20772;SDS011;10546;50.674;4.616;2023-03-29T12:15:52;5.07;;;2.40;;
20772;SDS011;10546;50.674;4.616;2023-03-29T12:18:29;3.42;;;2.45;;
20772;SDS011;10546;50.674;4.616;2023-03-29T12:21:01;4.43;;;2.10;;
20772;SDS011;10546;50.674;4.616;2023-03-29T12:23:30;3.42;;;2.15;;
20772;SDS011;10546;50.674;4.616;2023-03-29T12:39:40;7.30;;;2.90;;
20772;SDS011;10546;50.674;4.616;2023-03-29T12:42:17;5.13;;;2.90;;
20772;SDS011;10546;50.674;4.616;2023-03-29T12:44:45;4.10;;;2.45;;
20772;SDS011;10546;50.674;4.616;2023-03-29T12:47:23;5.15;;;2.20;;
20772;SDS011;10546;50.674;4.616;2023-03-29T12:49:53;4.00;;;2.40;;
20772;SDS011;10546;50.674;4.616;2023-03-29T12:54:54;5.20;;;2.10;;
20772;SDS011;10546;50.674;4.616;2023-03-29T12:57:26;4.50;;;2.10;;
20772;SDS011;10546;50.674;4.616;2023-03-29T12:59:52;4.88;;;2.97;;
20772;SDS011;10546;50.674;4.616;2023-03-29T13:09:50;3.08;;;2.00;;
20772;SDS011;10546;50.674;4.616;2023-03-29T13:12:45;5.68;;;3.22;;
20772;SDS011;10546;50.674;4.616;2023-03-29T13:17:46;6.38;;;2.40;;
20772;SDS011;10546;50.674;4.616;2023-03-29T13:20:30;5.95;;;2.28;;
20772;SDS011;10546;50.674;4.616;2023-03-29T13:31:40;5.15;;;2.35;;
20772;SDS011;10546;50.674;4.616;2023-03-29T13:39:45;4.68;;;2.10;;
20772;SDS011;10546;50.674;4.616;2023-03-29T13:42:23;3.97;;;2.05;;
20772;SDS011;10546;50.674;4.616;2023-03-29T13:45:09;2.35;;;1.75;;
20772;SDS011;10546;50.674;4.616;2023-03-29T13:47:42;4.75;;;2.20;;
20772;SDS011;10546;50.674;4.616;2023-03-29T13:50:19;4.05;;;2.00;;
20772;SDS011;10546;50.674;4.616;2023-03-29T13:53:02;7.38;;;2.60;;
20772;SDS011;10546;50.674;4.616;2023-03-29T13:55:45;7.18;;;2.28;;
20772;SDS011;10546;50.674;4.616;2023-03-29T13:58:19;3.70;;;1.67;;
20772;SDS011;10546;50.674;4.616;2023-03-29T14:01:01;6.53;;;1.88;;
20772;SDS011;10546;50.674;4.616;2023-03-29T14:03:38;4.70;;;2.17;;
20772;SDS011;10546;50.674;4.616;2023-03-29T14:06:07;4.15;;;2.10;;
20772;SDS011;10546;50.674;4.616;2023-03-29T14:08:36;4.18;;;2.10;;
20772;SDS011;10546;50.674;4.616;2023-03-29T14:11:04;4.45;;;1.83;;
20772;SDS011;10546;50.674;4.616;2023-03-29T14:13:32;6.40;;;3.60;;
20772;SDS011;10546;50.674;4.616;2023-03-29T14:16:00;6.55;;;2.72;;
20772;SDS011;10546;50.674;4.616;2023-03-29T14:18:32;3.78;;;2.58;;
20772;SDS011;10546;50.674;4.616;2023-03-29T14:21:00;3.90;;;1.90;;
20772;SDS011;10546;50.674;4.616;2023-03-29T14:23:27;3.30;;;1.85;;
20772;SDS011;10546;50.674;4.616;2023-03-29T14:25:54;3.55;;;1.50;;
20772;SDS011;10546;50.674;4.616;2023-03-29T14:28:45;4.95;;;1.90;;
20772;SDS011;10546;50.674;4.616;2023-03-29T14:31:32;6.03;;;2.40;;
20772;SDS011;10546;50.674;4.616;2023-03-29T14:34:00;5.63;;;2.40;;
20772;SDS011;10546;50.674;4.616;2023-03-29T14:36:29;3.92;;;2.10;;
20772;SDS011;10546;50.674;4.616;2023-03-29T14:41:56;7.53;;;2.83;;
20772;SDS011;10546;50.674;4.616;2023-03-29T14:44:31;6.70;;;2.63;;
20772;SDS011;10546;50.674;4.616;2023-03-29T14:46:59;8.30;;;3.08;;
20772;SDS011;10546;50.674;4.616;2023-03-29T14:49:27;5.35;;;2.65;;
20772;SDS011;10546;50.674;4.616;2023-03-29T14:51:53;8.60;;;2.67;;
20772;SDS011;10546;50.674;4.616;2023-03-29T14:54:27;6.22;;;2.40;;
20772;SDS011;10546;50.674;4.616;2023-03-29T14:56:55;4.57;;;2.20;;
20772;SDS011;10546;50.674;4.616;2023-03-29T15:02:00;4.32;;;1.85;;
20772;SDS011;10546;50.674;4.616;2023-03-29T15:04:35;4.88;;;2.65;;
20772;SDS011;10546;50.674;4.616;2023-03-29T15:07:04;5.35;;;3.65;;
20772;SDS011;10546;50.674;4.616;2023-03-29T15:09:33;5.15;;;2.83;;
20772;SDS011;10546;50.674;4.616;2023-03-29T15:12:00;10.02;;;3.55;;
20772;SDS011;10546;50.674;4.616;2023-03-29T15:14:33;7.00;;;3.20;;
20772;SDS011;10546;50.674;4.616;2023-03-29T15:17:21;6.43;;;3.22;;
20772;SDS011;10546;50.674;4.616;2023-03-29T15:20:06;6.45;;;2.90;;
20772;SDS011;10546;50.674;4.616;2023-03-29T15:22:58;7.47;;;2.95;;
20772;SDS011;10546;50.674;4.616;2023-03-29T15:25:33;7.82;;;3.08;;
20772;SDS011;10546;50.674;4.616;2023-03-29T15:28:30;6.55;;;3.13;;
20772;SDS011;10546;50.674;4.616;2023-03-29T15:31:11;5.63;;;3.13;;
20772;SDS011;10546;50.674;4.616;2023-03-29T15:33:39;6.93;;;3.00;;
20772;SDS011;10546;50.674;4.616;2023-03-29T15:36:09;10.32;;;3.75;;
20772;SDS011;10546;50.674;4.616;2023-03-29T15:38:38;6.43;;;3.30;;
20772;SDS011;10546;50.674;4.616;2023-03-29T15:41:06;9.45;;;4.80;;
20772;SDS011;10546;50.674;4.616;2023-03-29T15:43:32;9.30;;;4.45;;
20772;SDS011;10546;50.674;4.616;2023-03-29T15:45:59;5.97;;;2.88;;
20772;SDS011;10546;50.674;4.616;2023-03-29T15:48:26;6.53;;;3.72;;
20772;SDS011;10546;50.674;4.616;2023-03-29T15:50:53;9.18;;;3.50;;
20772;SDS011;10546;50.674;4.616;2023-03-29T15:53:20;10.63;;;2.97;;
20772;SDS011;10546;50.674;4.616;2023-03-29T15:55:48;10.23;;;4.07;;
20772;SDS011;10546;50.674;4.616;2023-03-29T15:58:22;9.05;;;4.00;;
20772;SDS011;10546;50.674;4.616;2023-03-29T16:00:53;8.57;;;4.10;;
20772;SDS011;10546;50.674;4.616;2023-03-29T16:03:26;10.65;;;4.72;;
20772;SDS011;10546;50.674;4.616;2023-03-29T16:05:53;12.52;;;3.95;;
20772;SDS011;10546;50.674;4.616;2023-03-29T16:08:20;9.02;;;3.45;;
20772;SDS011;10546;50.674;4.616;2023-03-29T16:10:47;13.65;;;4.45;;
20772;SDS011;10546;50.674;4.616;2023-03-29T16:13:14;8.20;;;3.53;;
20772;SDS011;10546;50.674;4.616;2023-03-29T16:15:40;8.70;;;3.63;;
20772;SDS011;10546;50.674;4.616;2023-03-29T16:18:07;7.07;;;3.10;;
20772;SDS011;10546;50.674;4.616;2023-03-29T16:20:33;10.85;;;3.50;;
20772;SDS011;10546;50.674;4.616;2023-03-29T16:22:58;8.30;;;3.58;;
20772;SDS011;10546;50.674;4.616;2023-03-29T16:25:24;11.45;;;3.80;;
20772;SDS011;10546;50.674;4.616;2023-03-29T16:27:51;6.53;;;3.13;;
20772;SDS011;10546;50.674;4.616;2023-03-29T16:30:17;8.50;;;3.78;;
20772;SDS011;10546;50.674;4.616;2023-03-29T16:32:43;7.60;;;3.35;;
20772;SDS011;10546;50.674;4.616;2023-03-29T16:35:30;6.07;;;3.15;;
20772;SDS011;10546;50.674;4.616;2023-03-29T16:37:57;11.52;;;4.05;;
20772;SDS011;10546;50.674;4.616;2023-03-29T16:40:23;11.45;;;3.92;;
20772;SDS011;10546;50.674;4.616;2023-03-29T16:42:49;10.38;;;3.55;;
20772;SDS011;10546;50.674;4.616;2023-03-29T16:45:15;13.40;;;4.88;;
20772;SDS011;10546;50.674;4.616;2023-03-29T16:47:42;14.27;;;4.57;;
20772;SDS011;10546;50.674;4.616;2023-03-29T16:50:09;9.27;;;4.13;;
20772;SDS011;10546;50.674;4.616;2023-03-29T16:52:39;8.98;;;4.10;;
20772;SDS011;10546;50.674;4.616;2023-03-29T16:55:06;11.60;;;4.38;;
20772;SDS011;10546;50.674;4.616;2023-03-29T16:57:33;9.43;;;4.85;;
20772;SDS011;10546;50.674;4.616;2023-03-29T16:59:58;9.90;;;4.22;;
20772;SDS011;10546;50.674;4.616;2023-03-29T17:02:24;9.02;;;4.20;;
20772;SDS011;10546;50.674;4.616;2023-03-29T17:04:50;12.20;;;4.32;;
20772;SDS011;10546;50.674;4.616;2023-03-29T17:07:16;11.63;;;5.47;;
20772;SDS011;10546;50.674;4.616;2023-03-29T17:09:42;12.05;;;6.00;;
20772;SDS011;10546;50.674;4.616;2023-03-29T17:12:09;12.27;;;5.70;;
20772;SDS011;10546;50.674;4.616;2023-03-29T17:14:35;8.60;;;4.43;;
20772;SDS011;10546;50.674;4.616;2023-03-29T17:17:01;8.75;;;4.13;;
20772;SDS011;10546;50.674;4.616;2023-03-29T17:19:28;13.35;;;4.00;;
20772;SDS011;10546;50.674;4.616;2023-03-29T17:21:53;13.70;;;4.55;;
20772;SDS011;10546;50.674;4.616;2023-03-29T17:24:19;8.93;;;4.00;;
20772;SDS011;10546;50.674;4.616;2023-03-29T17:26:45;9.52;;;4.20;;
20772;SDS011;10546;50.674;4.616;2023-03-29T17:29:10;9.07;;;4.85;;
20772;SDS011;10546;50.674;4.616;2023-03-29T17:31:36;7.93;;;4.60;;
20772;SDS011;10546;50.674;4.616;2023-03-29T17:34:10;8.32;;;4.32;;
20772;SDS011;10546;50.674;4.616;2023-03-29T17:36:36;8.27;;;4.03;;
20772;SDS011;10546;50.674;4.616;2023-03-29T17:39:02;11.75;;;4.20;;
20772;SDS011;10546;50.674;4.616;2023-03-29T17:41:28;14.85;;;4.60;;
20772;SDS011;10546;50.674;4.616;2023-03-29T17:43:54;12.98;;;4.68;;
20772;SDS011;10546;50.674;4.616;2023-03-29T17:46:20;11.25;;;4.75;;
20772;SDS011;10546;50.674;4.616;2023-03-29T17:48:46;9.73;;;4.55;;
20772;SDS011;10546;50.674;4.616;2023-03-29T17:51:14;9.45;;;4.68;;
20772;SDS011;10546;50.674;4.616;2023-03-29T17:53:41;14.43;;;4.70;;
20772;SDS011;10546;50.674;4.616;2023-03-29T17:56:07;9.40;;;4.38;;
20772;SDS011;10546;50.674;4.616;2023-03-29T17:58:33;11.25;;;4.38;;
20772;SDS011;10546;50.674;4.616;2023-03-29T18:01:04;9.73;;;4.45;;
20772;SDS011;10546;50.674;4.616;2023-03-29T18:03:34;8.98;;;4.10;;
20772;SDS011;10546;50.674;4.616;2023-03-29T18:06:00;9.20;;;4.32;;
20772;SDS011;10546;50.674;4.616;2023-03-29T18:08:26;10.05;;;5.72;;
20772;SDS011;10546;50.674;4.616;2023-03-29T18:10:51;9.02;;;4.50;;
20772;SDS011;10546;50.674;4.616;2023-03-29T18:13:17;10.68;;;4.50;;
20772;SDS011;10546;50.674;4.616;2023-03-29T18:15:52;12.55;;;4.65;;
20772;SDS011;10546;50.674;4.616;2023-03-29T18:18:20;14.18;;;4.78;;
20772;SDS011;10546;50.674;4.616;2023-03-29T18:20:45;9.93;;;5.10;;
20772;SDS011;10546;50.674;4.616;2023-03-29T18:23:11;14.68;;;4.65;;
20772;SDS011;10546;50.674;4.616;2023-03-29T18:25:37;8.15;;;4.80;;
20772;SDS011;10546;50.674;4.616;2023-03-29T18:28:03;11.93;;;5.10;;
20772;SDS011;10546;50.674;4.616;2023-03-29T18:30:28;13.10;;;4.65;;
20772;SDS011;10546;50.674;4.616;2023-03-29T18:32:54;11.00;;;4.68;;
20772;SDS011;10546;50.674;4.616;2023-03-29T18:35:20;10.20;;;4.70;;
20772;SDS011;10546;50.674;4.616;2023-03-29T18:37:47;12.00;;;4.85;;
20772;SDS011;10546;50.674;4.616;2023-03-29T18:40:13;11.63;;;5.72;;
20772;SDS011;10546;50.674;4.616;2023-03-29T18:42:39;11.90;;;4.93;;
20772;SDS011;10546;50.674;4.616;2023-03-29T18:45:05;11.00;;;4.65;;
20772;SDS011;10546;50.674;4.616;2023-03-29T18:47:33;13.32;;;6.68;;
20772;SDS011;10546;50.674;4.616;2023-03-29T18:49:58;15.98;;;6.43;;
20772;SDS011;10546;50.674;4.616;2023-03-29T18:52:26;12.43;;;5.65;;
20772;SDS011;10546;50.674;4.616;2023-03-29T18:54:52;11.82;;;4.97;;
20772;SDS011;10546;50.674;4.616;2023-03-29T18:57:17;15.13;;;5.07;;
20772;SDS011;10546;50.674;4.616;2023-03-29T18:59:43;7.15;;;3.70;;
20772;SDS011;10546;50.674;4.616;2023-03-29T19:02:08;16.70;;;5.43;;
20772;SDS011;10546;50.674;4.616;2023-03-29T19:04:34;8.85;;;4.65;;
20772;SDS011;10546;50.674;4.616;2023-03-29T19:07:00;12.57;;;4.90;;
20772;SDS011;10546;50.674;4.616;2023-03-29T19:09:26;13.07;;;5.35;;
20772;SDS011;10546;50.674;4.616;2023-03-29T19:11:52;9.63;;;4.88;;
20772;SDS011;10546;50.674;4.616;2023-03-29T19:14:18;14.27;;;5.50;;
20772;SDS011;10546;50.674;4.616;2023-03-29T19:16:48;14.70;;;5.68;;
20772;SDS011;10546;50.674;4.616;2023-03-29T19:19:15;10.13;;;4.88;;
20772;SDS011;10546;50.674;4.616;2023-03-29T19:21:40;10.23;;;4.90;;
20772;SDS011;10546;50.674;4.616;2023-03-29T19:24:06;14.73;;;5.72;;
20772;SDS011;10546;50.674;4.616;2023-03-29T19:26:32;13.15;;;5.47;;
20772;SDS011;10546;50.674;4.616;2023-03-29T19:28:58;11.77;;;5.53;;
20772;SDS011;10546;50.674;4.616;2023-03-29T19:31:24;12.07;;;5.32;;
20772;SDS011;10546;50.674;4.616;2023-03-29T19:33:51;12.95;;;5.40;;
20772;SDS011;10546;50.674;4.616;2023-03-29T19:36:17;10.40;;;5.53;;
20772;SDS011;10546;50.674;4.616;2023-03-29T19:38:42;13.23;;;6.00;;
20772;SDS011;10546;50.674;4.616;2023-03-29T19:41:08;10.23;;;5.35;;
20772;SDS011;10546;50.674;4.616;2023-03-29T19:43:35;14.63;;;5.32;;
20772;SDS011;10546;50.674;4.616;2023-03-29T19:46:05;12.82;;;5.03;;
20772;SDS011;10546;50.674;4.616;2023-03-29T19:48:34;9.48;;;4.93;;
20772;SDS011;10546;50.674;4.616;2023-03-29T19:51:01;12.88;;;5.28;;
20772;SDS011;10546;50.674;4.616;2023-03-29T19:53:36;10.75;;;5.32;;
20772;SDS011;10546;50.674;4.616;2023-03-29T19:56:02;10.30;;;4.80;;
20772;SDS011;10546;50.674;4.616;2023-03-29T19:58:28;7.65;;;4.38;;
20772;SDS011;10546;50.674;4.616;2023-03-29T20:00:54;9.73;;;4.70;;
20772;SDS011;10546;50.674;4.616;2023-03-29T20:03:26;14.18;;;5.47;;
20772;SDS011;10546;50.674;4.616;2023-03-29T20:05:53;8.13;;;4.32;;
20772;SDS011;10546;50.674;4.616;2023-03-29T20:08:20;12.13;;;4.80;;
20772;SDS011;10546;50.674;4.616;2023-03-29T20:10:46;9.10;;;4.70;;
20772;SDS011;10546;50.674;4.616;2023-03-29T20:13:12;9.90;;;4.90;;
20772;SDS011;10546;50.674;4.616;2023-03-29T20:15:38;8.30;;;4.43;;
20772;SDS011;10546;50.674;4.616;2023-03-29T20:18:03;11.10;;;4.30;;
20772;SDS011;10546;50.674;4.616;2023-03-29T20:20:29;13.07;;;4.30;;
20772;SDS011;10546;50.674;4.616;2023-03-29T20:22:55;7.72;;;3.78;;
20772;SDS011;10546;50.674;4.616;2023-03-29T20:25:25;11.10;;;5.00;;
20772;SDS011;10546;50.674;4.616;2023-03-29T20:27:52;11.52;;;4.55;;
20772;SDS011;10546;50.674;4.616;2023-03-29T20:30:21;6.28;;;3.83;;
20772;SDS011;10546;50.674;4.616;2023-03-29T20:32:47;6.00;;;3.53;;
20772;SDS011;10546;50.674;4.616;2023-03-29T20:35:13;7.00;;;3.40;;
20772;SDS011;10546;50.674;4.616;2023-03-29T20:37:39;8.85;;;3.70;;
20772;SDS011;10546;50.674;4.616;2023-03-29T20:40:05;7.13;;;3.30;;
20772;SDS011;10546;50.674;4.616;2023-03-29T20:42:32;9.82;;;3.53;;
20772;SDS011;10546;50.674;4.616;2023-03-29T20:45:01;10.60;;;3.40;;
20772;SDS011;10546;50.674;4.616;2023-03-29T20:47:28;10.23;;;3.70;;
20772;SDS011;10546;50.674;4.616;2023-03-29T20:49:53;7.03;;;3.58;;